sensor_id;sensor_type;location;lat;lon;timestamp;temperature;humidity
61004;DHT22;46889;37.310;13.582;2023-04-24T00:00:30;15.90;99.90
61004;DHT22;46889;37.310;13.582;2023-04-24T00:02:57;15.90;99.90
61004;DHT22;46889;37.310;13.582;2023-04-24T00:05:23;15.80;99.90
61004;DHT22;46889;37.310;13.582;2023-04-24T00:07:50;15.80;99.90
61004;DHT22;46889;37.310;13.582;2023-04-24T00:10:19;15.80;99.90
61004;DHT22;46889;37.310;13.582;2023-04-24T00:12:45;15.70;99.90
61004;DHT22;46889;37.310;13.582;2023-04-24T00:15:11;15.70;99.90
61004;DHT22;46889;37.310;13.582;2023-04-24T00:17:37;15.70;99.90
61004;DHT22;46889;37.310;13.582;2023-04-24T00:20:04;15.70;99.90
61004;DHT22;46889;37.310;13.582;2023-04-24T00:22:32;15.70;99.90
61004;DHT22;46889;37.310;13.582;2023-04-24T00:24:59;15.70;99.90
61004;DHT22;46889;37.310;13.582;2023-04-24T00:27:25;15.70;99.90
61004;DHT22;46889;37.310;13.582;2023-04-24T00:29:51;15.70;99.90
61004;DHT22;46889;37.310;13.582;2023-04-24T00:32:17;15.60;99.90
61004;DHT22;46889;37.310;13.582;2023-04-24T00:34:43;15.60;99.90
61004;DHT22;46889;37.310;13.582;2023-04-24T00:37:09;15.60;99.90
61004;DHT22;46889;37.310;13.582;2023-04-24T00:39:35;15.60;99.90
61004;DHT22;46889;37.310;13.582;2023-04-24T00:42:01;15.60;99.90
61004;DHT22;46889;37.310;13.582;2023-04-24T00:44:28;15.60;99.90
61004;DHT22;46889;37.310;13.582;2023-04-24T00:46:54;15.60;99.90
61004;DHT22;46889;37.310;13.582;2023-04-24T00:49:22;15.60;99.90
61004;DHT22;46889;37.310;13.582;2023-04-24T00:51:48;15.70;99.90
61004;DHT22;46889;37.310;13.582;2023-04-24T00:54:14;15.70;99.90
61004;DHT22;46889;37.310;13.582;2023-04-24T00:56:42;15.60;99.90
61004;DHT22;46889;37.310;13.582;2023-04-24T00:59:08;15.60;99.90
61004;DHT22;46889;37.310;13.582;2023-04-24T01:01:35;15.60;99.90
61004;DHT22;46889;37.310;13.582;2023-04-24T01:04:02;15.50;99.90
61004;DHT22;46889;37.310;13.582;2023-04-24T01:06:29;15.40;99.90
61004;DHT22;46889;37.310;13.582;2023-04-24T01:08:57;15.40;99.90
61004;DHT22;46889;37.310;13.582;2023-04-24T01:11:25;15.50;99.90
61004;DHT22;46889;37.310;13.582;2023-04-24T01:13:51;15.50;99.90
61004;DHT22;46889;37.310;13.582;2023-04-24T01:16:18;15.50;99.90
61004;DHT22;46889;37.310;13.582;2023-04-24T01:18:47;15.50;99.90
61004;DHT22;46889;37.310;13.582;2023-04-24T01:21:15;15.50;99.90
61004;DHT22;46889;37.310;13.582;2023-04-24T01:23:45;15.50;99.90
61004;DHT22;46889;37.310;13.582;2023-04-24T01:26:12;15.40;99.90
61004;DHT22;46889;37.310;13.582;2023-04-24T01:28:39;15.40;99.90
61004;DHT22;46889;37.310;13.582;2023-04-24T01:31:05;15.40;99.90
61004;DHT22;46889;37.310;13.582;2023-04-24T01:33:32;15.40;99.90
61004;DHT22;46889;37.310;13.582;2023-04-24T01:35:59;15.50;99.90
61004;DHT22;46889;37.310;13.582;2023-04-24T01:38:25;15.50;99.90
61004;DHT22;46889;37.310;13.582;2023-04-24T01:40:51;15.50;99.90
61004;DHT22;46889;37.310;13.582;2023-04-24T01:43:18;15.40;99.90
61004;DHT22;46889;37.310;13.582;2023-04-24T01:45:51;15.30;99.90
61004;DHT22;46889;37.310;13.582;2023-04-24T01:48:17;15.30;99.90
61004;DHT22;46889;37.310;13.582;2023-04-24T01:50:43;15.30;99.90
61004;DHT22;46889;37.310;13.582;2023-04-24T01:53:09;15.30;99.90
61004;DHT22;46889;37.310;13.582;2023-04-24T01:55:35;15.30;99.90
61004;DHT22;46889;37.310;13.582;2023-04-24T01:58:01;15.30;99.90
61004;DHT22;46889;37.310;13.582;2023-04-24T02:00:28;15.40;99.90
61004;DHT22;46889;37.310;13.582;2023-04-24T02:02:54;15.40;99.90
61004;DHT22;46889;37.310;13.582;2023-04-24T02:05:20;15.40;99.90
61004;DHT22;46889;37.310;13.582;2023-04-24T02:07:46;15.40;99.90
61004;DHT22;46889;37.310;13.582;2023-04-24T02:10:12;15.30;99.90
61004;DHT22;46889;37.310;13.582;2023-04-24T02:12:38;15.30;99.90
61004;DHT22;46889;37.310;13.582;2023-04-24T02:15:04;15.30;99.90
61004;DHT22;46889;37.310;13.582;2023-04-24T02:17:32;15.30;99.90
61004;DHT22;46889;37.310;13.582;2023-04-24T02:19:58;15.30;99.90
61004;DHT22;46889;37.310;13.582;2023-04-24T02:22:24;15.30;99.90
61004;DHT22;46889;37.310;13.582;2023-04-24T02:24:50;15.30;99.90
61004;DHT22;46889;37.310;13.582;2023-04-24T02:27:16;15.30;99.90
61004;DHT22;46889;37.310;13.582;2023-04-24T02:29:42;15.30;99.90
61004;DHT22;46889;37.310;13.582;2023-04-24T02:32:08;15.30;99.90
61004;DHT22;46889;37.310;13.582;2023-04-24T02:34:37;15.30;99.90
61004;DHT22;46889;37.310;13.582;2023-04-24T02:37:04;15.30;99.90
61004;DHT22;46889;37.310;13.582;2023-04-24T02:39:30;15.30;99.90
61004;DHT22;46889;37.310;13.582;2023-04-24T02:41:56;15.30;99.90
61004;DHT22;46889;37.310;13.582;2023-04-24T02:44:22;15.20;99.90
61004;DHT22;46889;37.310;13.582;2023-04-24T02:46:48;15.20;99.90
61004;DHT22;46889;37.310;13.582;2023-04-24T02:49:14;15.20;99.90
61004;DHT22;46889;37.310;13.582;2023-04-24T02:51:41;15.20;99.90
61004;DHT22;46889;37.310;13.582;2023-04-24T02:54:08;15.20;99.90
61004;DHT22;46889;37.310;13.582;2023-04-24T02:56:35;15.20;99.90
61004;DHT22;46889;37.310;13.582;2023-04-24T02:59:01;15.20;99.90
61004;DHT22;46889;37.310;13.582;2023-04-24T03:01:29;15.10;99.90
61004;DHT22;46889;37.310;13.582;2023-04-24T03:03:56;15.20;99.90
61004;DHT22;46889;37.310;13.582;2023-04-24T03:06:22;15.10;99.90
61004;DHT22;46889;37.310;13.582;2023-04-24T03:08:48;15.10;99.90
61004;DHT22;46889;37.310;13.582;2023-04-24T03:11:14;15.20;99.90
61004;DHT22;46889;37.310;13.582;2023-04-24T03:13:40;15.20;99.90
61004;DHT22;46889;37.310;13.582;2023-04-24T03:16:07;15.10;99.90
61004;DHT22;46889;37.310;13.582;2023-04-24T03:18:33;15.20;99.90
61004;DHT22;46889;37.310;13.582;2023-04-24T03:21:00;15.10;99.90
61004;DHT22;46889;37.310;13.582;2023-04-24T03:23:26;15.10;99.90
61004;DHT22;46889;37.310;13.582;2023-04-24T03:25:52;15.20;99.90
61004;DHT22;46889;37.310;13.582;2023-04-24T03:28:20;15.30;99.90
61004;DHT22;46889;37.310;13.582;2023-04-24T03:30:46;15.20;99.90
61004;DHT22;46889;37.310;13.582;2023-04-24T03:33:12;15.20;99.90
61004;DHT22;46889;37.310;13.582;2023-04-24T03:35:38;15.20;99.90
61004;DHT22;46889;37.310;13.582;2023-04-24T03:38:04;15.10;99.90
61004;DHT22;46889;37.310;13.582;2023-04-24T03:40:30;15.00;99.90
61004;DHT22;46889;37.310;13.582;2023-04-24T03:42:59;14.90;99.90
61004;DHT22;46889;37.310;13.582;2023-04-24T03:45:31;14.80;99.90
61004;DHT22;46889;37.310;13.582;2023-04-24T03:47:57;14.60;99.90
61004;DHT22;46889;37.310;13.582;2023-04-24T03:50:23;14.60;99.90
61004;DHT22;46889;37.310;13.582;2023-04-24T03:52:49;14.60;99.90
61004;DHT22;46889;37.310;13.582;2023-04-24T03:55:15;14.60;99.90
61004;DHT22;46889;37.310;13.582;2023-04-24T03:57:41;14.60;99.90
61004;DHT22;46889;37.310;13.582;2023-04-24T04:00:07;14.60;99.90
61004;DHT22;46889;37.310;13.582;2023-04-24T04:02:34;14.70;99.90
61004;DHT22;46889;37.310;13.582;2023-04-24T04:05:00;14.70;99.90
61004;DHT22;46889;37.310;13.582;2023-04-24T04:07:27;14.80;99.90
61004;DHT22;46889;37.310;13.582;2023-04-24T04:09:55;14.80;99.90
61004;DHT22;46889;37.310;13.582;2023-04-24T04:12:21;14.80;99.90
61004;DHT22;46889;37.310;13.582;2023-04-24T04:14:47;14.80;99.90
61004;DHT22;46889;37.310;13.582;2023-04-24T04:17:13;14.90;99.90
61004;DHT22;46889;37.310;13.582;2023-04-24T04:19:39;14.90;99.90
61004;DHT22;46889;37.310;13.582;2023-04-24T04:22:06;15.00;99.90
61004;DHT22;46889;37.310;13.582;2023-04-24T04:24:33;15.00;99.90
61004;DHT22;46889;37.310;13.582;2023-04-24T04:27:04;15.00;99.90
61004;DHT22;46889;37.310;13.582;2023-04-24T04:29:31;15.00;99.90
61004;DHT22;46889;37.310;13.582;2023-04-24T04:31:58;15.00;99.90
61004;DHT22;46889;37.310;13.582;2023-04-24T04:34:23;15.00;99.90
61004;DHT22;46889;37.310;13.582;2023-04-24T04:36:51;15.10;99.90
61004;DHT22;46889;37.310;13.582;2023-04-24T04:39:17;15.10;99.90
61004;DHT22;46889;37.310;13.582;2023-04-24T04:41:44;15.20;99.90
61004;DHT22;46889;37.310;13.582;2023-04-24T04:44:12;15.30;99.90
61004;DHT22;46889;37.310;13.582;2023-04-24T04:46:38;15.40;99.90
61004;DHT22;46889;37.310;13.582;2023-04-24T04:49:04;15.40;99.90
61004;DHT22;46889;37.310;13.582;2023-04-24T04:51:30;15.50;99.90
61004;DHT22;46889;37.310;13.582;2023-04-24T04:53:57;15.50;99.90
61004;DHT22;46889;37.310;13.582;2023-04-24T04:56:23;15.60;99.90
61004;DHT22;46889;37.310;13.582;2023-04-24T04:58:49;15.60;99.90
61004;DHT22;46889;37.310;13.582;2023-04-24T05:01:15;15.70;99.90
61004;DHT22;46889;37.310;13.582;2023-04-24T05:03:41;15.80;99.90
61004;DHT22;46889;37.310;13.582;2023-04-24T05:06:07;16.00;99.90
61004;DHT22;46889;37.310;13.582;2023-04-24T05:08:33;15.80;99.90
61004;DHT22;46889;37.310;13.582;2023-04-24T05:10:59;16.00;99.90
61004;DHT22;46889;37.310;13.582;2023-04-24T05:13:26;17.00;99.90
61004;DHT22;46889;37.310;13.582;2023-04-24T05:15:52;18.30;99.90
61004;DHT22;46889;37.310;13.582;2023-04-24T05:18:18;19.50;99.90
61004;DHT22;46889;37.310;13.582;2023-04-24T05:20:44;20.30;99.90
61004;DHT22;46889;37.310;13.582;2023-04-24T05:23:10;22.10;99.90
61004;DHT22;46889;37.310;13.582;2023-04-24T05:25:37;24.20;99.90
61004;DHT22;46889;37.310;13.582;2023-04-24T05:28:04;25.40;99.90
61004;DHT22;46889;37.310;13.582;2023-04-24T05:30:31;24.80;99.90
61004;DHT22;46889;37.310;13.582;2023-04-24T05:32:57;26.50;99.30
61004;DHT22;46889;37.310;13.582;2023-04-24T05:35:23;27.90;97.90
61004;DHT22;46889;37.310;13.582;2023-04-24T05:37:49;28.00;96.80
61004;DHT22;46889;37.310;13.582;2023-04-24T05:40:15;28.10;96.30
61004;DHT22;46889;37.310;13.582;2023-04-24T05:42:41;28.20;95.60
61004;DHT22;46889;37.310;13.582;2023-04-24T05:45:07;28.80;95.00
61004;DHT22;46889;37.310;13.582;2023-04-24T05:47:34;29.50;93.90
61004;DHT22;46889;37.310;13.582;2023-04-24T05:50:01;30.30;93.00
61004;DHT22;46889;37.310;13.582;2023-04-24T05:52:27;30.00;92.20
61004;DHT22;46889;37.310;13.582;2023-04-24T05:54:53;30.40;92.00
61004;DHT22;46889;37.310;13.582;2023-04-24T05:57:19;31.30;90.40
61004;DHT22;46889;37.310;13.582;2023-04-24T05:59:45;30.60;90.20
61004;DHT22;46889;37.310;13.582;2023-04-24T06:02:10;30.70;90.00
61004;DHT22;46889;37.310;13.582;2023-04-24T06:04:36;29.70;90.00
61004;DHT22;46889;37.310;13.582;2023-04-24T06:07:02;30.80;90.10
61004;DHT22;46889;37.310;13.582;2023-04-24T06:09:29;31.90;89.20
61004;DHT22;46889;37.310;13.582;2023-04-24T06:11:55;33.00;89.10
61004;DHT22;46889;37.310;13.582;2023-04-24T06:14:23;33.80;85.70
61004;DHT22;46889;37.310;13.582;2023-04-24T06:16:49;33.50;84.60
61004;DHT22;46889;37.310;13.582;2023-04-24T06:19:15;32.20;85.10
61004;DHT22;46889;37.310;13.582;2023-04-24T06:21:41;31.70;86.50
61004;DHT22;46889;37.310;13.582;2023-04-24T06:24:07;31.20;86.90
61004;DHT22;46889;37.310;13.582;2023-04-24T06:26:33;30.90;86.60
61004;DHT22;46889;37.310;13.582;2023-04-24T06:28:59;32.00;85.50
61004;DHT22;46889;37.310;13.582;2023-04-24T06:31:25;33.00;85.80
61004;DHT22;46889;37.310;13.582;2023-04-24T06:33:51;31.80;87.30
61004;DHT22;46889;37.310;13.582;2023-04-24T06:36:19;31.30;87.80
61004;DHT22;46889;37.310;13.582;2023-04-24T06:38:45;33.10;85.20
61004;DHT22;46889;37.310;13.582;2023-04-24T06:41:11;33.40;84.10
61004;DHT22;46889;37.310;13.582;2023-04-24T06:43:38;33.90;83.20
61004;DHT22;46889;37.310;13.582;2023-04-24T06:46:04;33.40;82.30
61004;DHT22;46889;37.310;13.582;2023-04-24T06:48:30;35.50;85.90
61004;DHT22;46889;37.310;13.582;2023-04-24T06:50:56;35.70;79.10
61004;DHT22;46889;37.310;13.582;2023-04-24T06:53:23;33.80;84.40
61004;DHT22;46889;37.310;13.582;2023-04-24T06:55:49;33.80;81.60
61004;DHT22;46889;37.310;13.582;2023-04-24T06:58:15;32.70;82.80
61004;DHT22;46889;37.310;13.582;2023-04-24T07:00:41;33.10;83.10
61004;DHT22;46889;37.310;13.582;2023-04-24T07:03:07;34.00;81.10
61004;DHT22;46889;37.310;13.582;2023-04-24T07:05:33;34.10;81.10
61004;DHT22;46889;37.310;13.582;2023-04-24T07:08:00;33.90;80.80
61004;DHT22;46889;37.310;13.582;2023-04-24T07:10:27;34.60;79.50
61004;DHT22;46889;37.310;13.582;2023-04-24T07:12:55;33.70;81.10
61004;DHT22;46889;37.310;13.582;2023-04-24T07:15:22;33.90;80.20
61004;DHT22;46889;37.310;13.582;2023-04-24T07:17:49;34.60;80.60
61004;DHT22;46889;37.310;13.582;2023-04-24T07:20:15;33.80;79.80
61004;DHT22;46889;37.310;13.582;2023-04-24T07:22:41;33.00;81.70
61004;DHT22;46889;37.310;13.582;2023-04-24T07:25:08;32.30;90.70
61004;DHT22;46889;37.310;13.582;2023-04-24T07:27:35;31.70;84.30
61004;DHT22;46889;37.310;13.582;2023-04-24T07:30:05;30.30;86.50
61004;DHT22;46889;37.310;13.582;2023-04-24T07:32:32;29.80;89.00
61004;DHT22;46889;37.310;13.582;2023-04-24T07:34:58;28.70;90.30
61004;DHT22;46889;37.310;13.582;2023-04-24T07:37:24;28.50;91.10
61004;DHT22;46889;37.310;13.582;2023-04-24T07:39:51;27.50;92.00
61004;DHT22;46889;37.310;13.582;2023-04-24T07:42:17;27.70;92.60
61004;DHT22;46889;37.310;13.582;2023-04-24T07:44:43;27.50;93.00
61004;DHT22;46889;37.310;13.582;2023-04-24T07:47:11;26.80;93.90
61004;DHT22;46889;37.310;13.582;2023-04-24T07:49:37;26.30;94.70
61004;DHT22;46889;37.310;13.582;2023-04-24T07:52:03;26.40;94.90
61004;DHT22;46889;37.310;13.582;2023-04-24T07:54:29;26.10;95.40
61004;DHT22;46889;37.310;13.582;2023-04-24T07:56:55;26.20;95.60
61004;DHT22;46889;37.310;13.582;2023-04-24T07:59:21;26.10;96.20
61004;DHT22;46889;37.310;13.582;2023-04-24T08:01:47;25.90;96.70
61004;DHT22;46889;37.310;13.582;2023-04-24T08:04:13;26.10;97.00
61004;DHT22;46889;37.310;13.582;2023-04-24T08:06:39;25.60;97.60
61004;DHT22;46889;37.310;13.582;2023-04-24T08:09:05;25.50;98.00
61004;DHT22;46889;37.310;13.582;2023-04-24T08:11:31;25.50;98.40
61004;DHT22;46889;37.310;13.582;2023-04-24T08:13:58;25.50;98.40
61004;DHT22;46889;37.310;13.582;2023-04-24T08:16:24;25.10;98.90
61004;DHT22;46889;37.310;13.582;2023-04-24T08:18:52;24.80;99.70
61004;DHT22;46889;37.310;13.582;2023-04-24T08:21:19;24.80;99.90
61004;DHT22;46889;37.310;13.582;2023-04-24T08:23:46;24.60;99.90
61004;DHT22;46889;37.310;13.582;2023-04-24T08:26:13;24.40;99.90
61004;DHT22;46889;37.310;13.582;2023-04-24T08:28:44;24.00;99.90
61004;DHT22;46889;37.310;13.582;2023-04-24T08:31:10;23.80;99.90
61004;DHT22;46889;37.310;13.582;2023-04-24T08:33:36;23.90;99.90
61004;DHT22;46889;37.310;13.582;2023-04-24T08:36:05;24.20;99.90
61004;DHT22;46889;37.310;13.582;2023-04-24T08:38:31;24.40;99.90
61004;DHT22;46889;37.310;13.582;2023-04-24T08:40:58;24.80;99.90
61004;DHT22;46889;37.310;13.582;2023-04-24T08:43:25;24.10;99.90
61004;DHT22;46889;37.310;13.582;2023-04-24T08:45:53;24.10;99.90
61004;DHT22;46889;37.310;13.582;2023-04-24T08:48:22;23.70;99.90
61004;DHT22;46889;37.310;13.582;2023-04-24T08:50:50;23.50;99.90
61004;DHT22;46889;37.310;13.582;2023-04-24T08:53:17;23.50;99.90
61004;DHT22;46889;37.310;13.582;2023-04-24T08:55:44;23.30;99.90
61004;DHT22;46889;37.310;13.582;2023-04-24T08:58:12;23.30;99.90
61004;DHT22;46889;37.310;13.582;2023-04-24T09:00:39;23.40;99.90
61004;DHT22;46889;37.310;13.582;2023-04-24T09:03:06;23.40;99.90
61004;DHT22;46889;37.310;13.582;2023-04-24T09:05:32;23.60;99.90
61004;DHT22;46889;37.310;13.582;2023-04-24T09:07:59;23.40;99.90
61004;DHT22;46889;37.310;13.582;2023-04-24T09:10:25;23.30;99.90
61004;DHT22;46889;37.310;13.582;2023-04-24T09:12:52;23.60;99.90
61004;DHT22;46889;37.310;13.582;2023-04-24T09:15:19;23.50;99.90
61004;DHT22;46889;37.310;13.582;2023-04-24T09:17:46;23.70;99.90
61004;DHT22;46889;37.310;13.582;2023-04-24T09:20:12;23.50;99.90
61004;DHT22;46889;37.310;13.582;2023-04-24T09:22:38;23.20;99.90
61004;DHT22;46889;37.310;13.582;2023-04-24T09:25:07;22.90;99.90
61004;DHT22;46889;37.310;13.582;2023-04-24T09:27:34;22.60;99.90
61004;DHT22;46889;37.310;13.582;2023-04-24T09:30:01;22.60;99.90
61004;DHT22;46889;37.310;13.582;2023-04-24T09:32:28;23.00;99.90
61004;DHT22;46889;37.310;13.582;2023-04-24T09:35:11;23.00;99.90
61004;DHT22;46889;37.310;13.582;2023-04-24T09:37:46;23.00;99.90
61004;DHT22;46889;37.310;13.582;2023-04-24T09:40:13;22.70;99.90
61004;DHT22;46889;37.310;13.582;2023-04-24T09:42:43;22.80;99.90
61004;DHT22;46889;37.310;13.582;2023-04-24T09:45:10;22.70;99.90
61004;DHT22;46889;37.310;13.582;2023-04-24T09:47:40;22.10;99.90
61004;DHT22;46889;37.310;13.582;2023-04-24T09:50:14;21.70;99.90
61004;DHT22;46889;37.310;13.582;2023-04-24T09:52:42;21.70;99.90
61004;DHT22;46889;37.310;13.582;2023-04-24T09:55:19;21.90;99.90
61004;DHT22;46889;37.310;13.582;2023-04-24T09:57:50;22.10;99.90
61004;DHT22;46889;37.310;13.582;2023-04-24T10:00:29;22.30;99.90
61004;DHT22;46889;37.310;13.582;2023-04-24T10:03:00;22.10;99.90
61004;DHT22;46889;37.310;13.582;2023-04-24T10:05:34;21.90;99.90
61004;DHT22;46889;37.310;13.582;2023-04-24T10:08:03;22.00;99.90
61004;DHT22;46889;37.310;13.582;2023-04-24T10:10:31;21.80;99.90
61004;DHT22;46889;37.310;13.582;2023-04-24T10:12:58;21.90;99.90
61004;DHT22;46889;37.310;13.582;2023-04-24T10:15:26;22.40;99.90
61004;DHT22;46889;37.310;13.582;2023-04-24T10:17:52;22.40;99.90
61004;DHT22;46889;37.310;13.582;2023-04-24T10:20:26;22.40;99.90
61004;DHT22;46889;37.310;13.582;2023-04-24T10:22:54;22.70;99.90
61004;DHT22;46889;37.310;13.582;2023-04-24T10:25:22;22.60;99.90
61004;DHT22;46889;37.310;13.582;2023-04-24T10:27:50;22.60;99.90
61004;DHT22;46889;37.310;13.582;2023-04-24T10:30:17;22.40;99.90
61004;DHT22;46889;37.310;13.582;2023-04-24T10:32:44;22.30;99.90
61004;DHT22;46889;37.310;13.582;2023-04-24T10:35:12;22.30;99.90
61004;DHT22;46889;37.310;13.582;2023-04-24T10:38:05;22.30;99.90
61004;DHT22;46889;37.310;13.582;2023-04-24T10:40:34;22.30;99.90
61004;DHT22;46889;37.310;13.582;2023-04-24T10:43:07;22.60;99.90
61004;DHT22;46889;37.310;13.582;2023-04-24T10:45:37;22.20;99.90
61004;DHT22;46889;37.310;13.582;2023-04-24T10:48:05;22.10;99.90
61004;DHT22;46889;37.310;13.582;2023-04-24T10:50:47;22.10;99.90
61004;DHT22;46889;37.310;13.582;2023-04-24T10:53:18;22.10;99.90
61004;DHT22;46889;37.310;13.582;2023-04-24T10:55:47;22.50;99.90
61004;DHT22;46889;37.310;13.582;2023-04-24T10:58:14;22.60;99.90
61004;DHT22;46889;37.310;13.582;2023-04-24T11:00:43;22.30;99.90
61004;DHT22;46889;37.310;13.582;2023-04-24T11:03:34;22.50;99.90
61004;DHT22;46889;37.310;13.582;2023-04-24T11:06:07;22.50;99.90
61004;DHT22;46889;37.310;13.582;2023-04-24T11:08:44;22.60;99.90
61004;DHT22;46889;37.310;13.582;2023-04-24T11:11:17;22.80;99.90
61004;DHT22;46889;37.310;13.582;2023-04-24T11:16:28;22.30;99.90
61004;DHT22;46889;37.310;13.582;2023-04-24T11:24:49;21.80;99.90
61004;DHT22;46889;37.310;13.582;2023-04-24T11:27:21;21.70;99.90
61004;DHT22;46889;37.310;13.582;2023-04-24T11:32:41;22.20;99.90
61004;DHT22;46889;37.310;13.582;2023-04-24T11:37:41;22.40;99.90
61004;DHT22;46889;37.310;13.582;2023-04-24T11:40:10;22.40;99.90
61004;DHT22;46889;37.310;13.582;2023-04-24T11:42:44;22.50;99.90
61004;DHT22;46889;37.310;13.582;2023-04-24T11:45:13;22.30;99.90
61004;DHT22;46889;37.310;13.582;2023-04-24T11:47:40;22.50;99.90
61004;DHT22;46889;37.310;13.582;2023-04-24T11:50:08;22.60;99.90
61004;DHT22;46889;37.310;13.582;2023-04-24T11:52:42;22.50;99.90
61004;DHT22;46889;37.310;13.582;2023-04-24T11:57:45;22.50;99.90
61004;DHT22;46889;37.310;13.582;2023-04-24T12:00:22;23.00;99.90
61004;DHT22;46889;37.310;13.582;2023-04-24T12:02:49;23.40;99.90
61004;DHT22;46889;37.310;13.582;2023-04-24T12:05:23;23.30;99.90
61004;DHT22;46889;37.310;13.582;2023-04-24T12:07:50;23.20;99.90
61004;DHT22;46889;37.310;13.582;2023-04-24T12:10:23;22.80;99.90
61004;DHT22;46889;37.310;13.582;2023-04-24T12:12:51;22.40;99.90
61004;DHT22;46889;37.310;13.582;2023-04-24T12:15:18;22.60;99.90
61004;DHT22;46889;37.310;13.582;2023-04-24T12:17:45;23.20;99.90
61004;DHT22;46889;37.310;13.582;2023-04-24T12:20:12;22.90;99.90
61004;DHT22;46889;37.310;13.582;2023-04-24T12:22:47;23.10;99.90
61004;DHT22;46889;37.310;13.582;2023-04-24T12:25:17;23.30;99.90
61004;DHT22;46889;37.310;13.582;2023-04-24T12:27:45;23.00;99.90
61004;DHT22;46889;37.310;13.582;2023-04-24T12:30:14;23.20;99.90
61004;DHT22;46889;37.310;13.582;2023-04-24T12:32:48;23.10;99.90
61004;DHT22;46889;37.310;13.582;2023-04-24T12:35:23;22.90;99.90
61004;DHT22;46889;37.310;13.582;2023-04-24T12:37:49;22.60;99.90
61004;DHT22;46889;37.310;13.582;2023-04-24T12:40:19;22.70;99.90
61004;DHT22;46889;37.310;13.582;2023-04-24T12:42:47;22.80;99.90
61004;DHT22;46889;37.310;13.582;2023-04-24T12:45:15;23.10;99.90
61004;DHT22;46889;37.310;13.582;2023-04-24T12:47:42;22.80;99.90
61004;DHT22;46889;37.310;13.582;2023-04-24T12:50:11;23.00;99.90
61004;DHT22;46889;37.310;13.582;2023-04-24T12:52:37;23.20;99.90
61004;DHT22;46889;37.310;13.582;2023-04-24T12:55:05;22.80;99.90
61004;DHT22;46889;37.310;13.582;2023-04-24T12:57:36;22.70;99.90
61004;DHT22;46889;37.310;13.582;2023-04-24T13:00:03;22.80;99.90
61004;DHT22;46889;37.310;13.582;2023-04-24T13:02:30;23.00;99.90
61004;DHT22;46889;37.310;13.582;2023-04-24T13:04:57;22.70;99.90
61004;DHT22;46889;37.310;13.582;2023-04-24T13:07:23;22.50;99.90
61004;DHT22;46889;37.310;13.582;2023-04-24T13:09:51;22.50;99.90
61004;DHT22;46889;37.310;13.582;2023-04-24T13:12:17;22.30;99.90
61004;DHT22;46889;37.310;13.582;2023-04-24T13:14:44;22.60;99.90
61004;DHT22;46889;37.310;13.582;2023-04-24T13:17:11;22.40;99.90
61004;DHT22;46889;37.310;13.582;2023-04-24T13:19:43;22.20;99.90
61004;DHT22;46889;37.310;13.582;2023-04-24T13:22:15;22.40;99.90
61004;DHT22;46889;37.310;13.582;2023-04-24T13:24:42;22.70;99.90
61004;DHT22;46889;37.310;13.582;2023-04-24T13:27:09;22.60;99.90
61004;DHT22;46889;37.310;13.582;2023-04-24T13:29:36;22.40;99.90
61004;DHT22;46889;37.310;13.582;2023-04-24T13:32:02;22.70;99.90
61004;DHT22;46889;37.310;13.582;2023-04-24T13:34:29;22.50;99.90
61004;DHT22;46889;37.310;13.582;2023-04-24T13:36:57;22.70;99.90
61004;DHT22;46889;37.310;13.582;2023-04-24T13:39:24;22.50;99.90
61004;DHT22;46889;37.310;13.582;2023-04-24T13:41:51;21.60;99.90
61004;DHT22;46889;37.310;13.582;2023-04-24T13:44:19;21.80;99.90
61004;DHT22;46889;37.310;13.582;2023-04-24T13:46:47;21.80;99.90
61004;DHT22;46889;37.310;13.582;2023-04-24T13:49:21;22.10;99.90
61004;DHT22;46889;37.310;13.582;2023-04-24T13:51:47;22.30;99.90
61004;DHT22;46889;37.310;13.582;2023-04-24T13:54:13;21.90;99.90
61004;DHT22;46889;37.310;13.582;2023-04-24T13:56:40;21.70;99.90
61004;DHT22;46889;37.310;13.582;2023-04-24T13:59:06;21.40;99.90
61004;DHT22;46889;37.310;13.582;2023-04-24T14:01:32;21.00;99.90
61004;DHT22;46889;37.310;13.582;2023-04-24T14:03:58;21.30;99.90
61004;DHT22;46889;37.310;13.582;2023-04-24T14:06:25;21.20;99.90
61004;DHT22;46889;37.310;13.582;2023-04-24T14:08:53;21.30;99.90
61004;DHT22;46889;37.310;13.582;2023-04-24T14:11:19;21.20;99.90
61004;DHT22;46889;37.310;13.582;2023-04-24T14:13:45;21.30;99.90
61004;DHT22;46889;37.310;13.582;2023-04-24T14:16:12;21.20;99.90
61004;DHT22;46889;37.310;13.582;2023-04-24T14:18:38;21.20;99.90
61004;DHT22;46889;37.310;13.582;2023-04-24T14:21:04;20.90;99.90
61004;DHT22;46889;37.310;13.582;2023-04-24T14:23:31;20.40;99.90
61004;DHT22;46889;37.310;13.582;2023-04-24T14:25:58;20.60;99.90
61004;DHT22;46889;37.310;13.582;2023-04-24T14:28:24;21.00;99.90
61004;DHT22;46889;37.310;13.582;2023-04-24T14:30:51;21.30;99.90
61004;DHT22;46889;37.310;13.582;2023-04-24T14:33:17;21.80;99.90
61004;DHT22;46889;37.310;13.582;2023-04-24T14:35:44;22.20;99.90
61004;DHT22;46889;37.310;13.582;2023-04-24T14:38:10;22.00;99.90
61004;DHT22;46889;37.310;13.582;2023-04-24T14:40:37;22.10;99.90
61004;DHT22;46889;37.310;13.582;2023-04-24T14:43:03;22.40;99.90
61004;DHT22;46889;37.310;13.582;2023-04-24T14:45:29;22.70;99.90
61004;DHT22;46889;37.310;13.582;2023-04-24T14:47:56;22.70;99.90
61004;DHT22;46889;37.310;13.582;2023-04-24T14:50:22;22.50;99.90
61004;DHT22;46889;37.310;13.582;2023-04-24T14:52:48;22.40;99.90
61004;DHT22;46889;37.310;13.582;2023-04-24T14:55:14;22.30;99.90
61004;DHT22;46889;37.310;13.582;2023-04-24T14:57:41;22.20;99.90
61004;DHT22;46889;37.310;13.582;2023-04-24T15:00:08;22.50;99.90
61004;DHT22;46889;37.310;13.582;2023-04-24T15:02:36;22.30;99.90
61004;DHT22;46889;37.310;13.582;2023-04-24T15:05:06;21.70;99.90
61004;DHT22;46889;37.310;13.582;2023-04-24T15:07:32;21.70;99.90
61004;DHT22;46889;37.310;13.582;2023-04-24T15:09:59;21.60;99.90
61004;DHT22;46889;37.310;13.582;2023-04-24T15:12:25;21.50;99.90
61004;DHT22;46889;37.310;13.582;2023-04-24T15:14:51;21.20;99.90
61004;DHT22;46889;37.310;13.582;2023-04-24T15:17:17;21.10;99.90
61004;DHT22;46889;37.310;13.582;2023-04-24T15:19:43;21.30;99.90
61004;DHT22;46889;37.310;13.582;2023-04-24T15:22:09;21.30;99.90
61004;DHT22;46889;37.310;13.582;2023-04-24T15:24:36;21.20;99.90
61004;DHT22;46889;37.310;13.582;2023-04-24T15:27:02;21.30;99.90
61004;DHT22;46889;37.310;13.582;2023-04-24T15:29:28;21.30;99.90
61004;DHT22;46889;37.310;13.582;2023-04-24T15:31:54;21.30;99.90